createdAt,value
2023-02-06T00:00:49.933Z,2.88
2023-02-06T00:03:16.714Z,2.86
2023-02-06T00:05:43.385Z,2.76
2023-02-06T00:08:09.990Z,2.77
2023-02-06T00:10:36.620Z,2.72
2023-02-06T00:13:03.225Z,2.83
2023-02-06T00:15:29.920Z,2.90
2023-02-06T00:17:56.489Z,2.90
2023-02-06T00:20:23.067Z,2.95
2023-02-06T00:22:49.621Z,2.99
2023-02-06T00:25:16.215Z,2.93
2023-02-06T00:27:43.000Z,2.92
2023-02-06T00:30:10.070Z,2.98
2023-02-06T00:32:36.869Z,2.87
2023-02-06T00:35:03.794Z,2.82
2023-02-06T00:37:30.403Z,2.87
2023-02-06T00:39:57.060Z,2.74
2023-02-06T00:42:23.728Z,2.72
2023-02-06T00:44:50.509Z,2.72
2023-02-06T00:47:17.040Z,2.46
2023-02-06T00:49:43.591Z,2.51
2023-02-06T00:52:10.309Z,2.46
2023-02-06T00:54:36.917Z,2.59
2023-02-06T00:57:03.679Z,2.69
2023-02-06T00:59:30.296Z,2.55
2023-02-06T01:01:58.229Z,2.49
2023-02-06T01:04:24.997Z,2.44
2023-02-06T01:06:51.529Z,2.45
2023-02-06T01:09:18.155Z,2.39
2023-02-06T01:11:44.803Z,2.33
2023-02-06T01:14:11.369Z,2.28
2023-02-06T01:16:37.930Z,2.17
2023-02-06T01:19:04.529Z,2.18
2023-02-06T01:21:33.218Z,2.09
2023-02-06T01:24:00.009Z,2.17
2023-02-06T01:26:27.283Z,2.15
2023-02-06T01:28:55.242Z,1.95
2023-02-06T01:31:29.420Z,2.05
2023-02-06T01:33:57.813Z,1.97
2023-02-06T01:36:25.354Z,1.96
2023-02-06T01:38:52.723Z,2.10
2023-02-06T01:41:21.180Z,2.09
2023-02-06T01:44:13.172Z,2.21
2023-02-06T01:46:41.429Z,2.26
2023-02-06T01:49:13.877Z,2.28
2023-02-06T01:51:41.128Z,2.29
2023-02-06T01:54:09.191Z,2.20
2023-02-06T01:56:47.574Z,2.25
2023-02-06T01:59:14.562Z,2.27
2023-02-06T02:01:42.064Z,2.30
2023-02-06T02:04:14.935Z,2.18
2023-02-06T02:06:41.740Z,2.14
2023-02-06T02:09:08.416Z,2.12
2023-02-06T02:11:37.504Z,2.00
2023-02-06T02:14:08.707Z,1.98
2023-02-06T02:17:19.429Z,1.98
2023-02-06T02:20:07.990Z,2.03
2023-02-06T02:22:54.674Z,2.07
2023-02-06T02:25:24.163Z,2.08
2023-02-06T02:27:50.709Z,1.99
2023-02-06T02:30:39.149Z,1.90
2023-02-06T02:33:19.453Z,1.96
2023-02-06T02:35:58.124Z,1.85
2023-02-06T02:38:53.360Z,1.82
2023-02-06T02:41:44.871Z,1.82
2023-02-06T02:44:21.846Z,1.80
2023-02-06T02:46:54.955Z,1.76
2023-02-06T02:49:26.990Z,1.61
2023-02-06T02:51:54.491Z,1.76
2023-02-06T02:54:21.286Z,1.78
2023-02-06T02:56:47.903Z,1.67
2023-02-06T02:59:28.810Z,1.64
2023-02-06T03:02:04.119Z,1.67
2023-02-06T03:04:48.163Z,1.64
2023-02-06T03:07:21.766Z,1.72
2023-02-06T03:10:11.329Z,1.74
2023-02-06T03:12:54.190Z,1.80
2023-02-06T03:15:35.970Z,1.74
2023-02-06T03:18:19.376Z,1.67
2023-02-06T03:20:47.672Z,1.63
2023-02-06T03:23:21.775Z,1.63
2023-02-06T03:25:52.383Z,1.70
2023-02-06T03:28:25.472Z,1.61
2023-02-06T03:30:56.780Z,1.52
2023-02-06T03:33:27.992Z,1.51
2023-02-06T03:35:56.871Z,1.48
2023-02-06T03:38:25.042Z,1.44
2023-02-06T03:40:54.596Z,1.53
2023-02-06T03:43:24.400Z,1.54
2023-02-06T03:45:56.072Z,1.44
2023-02-06T03:48:45.785Z,1.40
2023-02-06T03:51:21.154Z,1.39
2023-02-06T03:53:50.200Z,1.35
2023-02-06T03:56:28.266Z,1.37
2023-02-06T03:58:54.977Z,1.22
2023-02-06T04:01:23.260Z,1.34
2023-02-06T04:03:50.121Z,1.39
2023-02-06T04:06:16.719Z,1.32
2023-02-06T04:08:43.487Z,1.37
2023-02-06T04:11:10.026Z,1.24
2023-02-06T04:13:36.745Z,1.25
2023-02-06T04:16:03.525Z,1.05
2023-02-06T04:18:30.144Z,1.10
2023-02-06T04:21:03.845Z,1.15
2023-02-06T04:23:30.505Z,1.21
2023-02-06T04:25:57.113Z,1.18
2023-02-06T04:28:23.705Z,1.22
2023-02-06T04:30:50.483Z,1.19
2023-02-06T04:33:17.208Z,1.16
2023-02-06T04:35:43.838Z,1.22
2023-02-06T04:38:10.424Z,1.21
2023-02-06T04:40:36.981Z,1.13
2023-02-06T04:43:03.597Z,1.20
2023-02-06T04:45:30.221Z,1.16
2023-02-06T04:47:59.184Z,1.21
2023-02-06T04:50:29.303Z,1.17
2023-02-06T04:52:55.931Z,1.12
2023-02-06T04:55:22.803Z,1.06
2023-02-06T04:57:49.383Z,1.04
2023-02-06T05:00:16.963Z,0.97
2023-02-06T05:02:43.591Z,0.87
2023-02-06T05:05:12.572Z,0.98
2023-02-06T05:07:39.249Z,1.10
2023-02-06T05:10:06.518Z,1.11
2023-02-06T05:12:33.090Z,1.01
2023-02-06T05:14:59.690Z,0.97
2023-02-06T05:17:26.270Z,0.92
2023-02-06T05:19:52.830Z,0.64
2023-02-06T05:22:19.402Z,0.49
2023-02-06T05:24:45.962Z,0.51
2023-02-06T05:27:12.596Z,0.59
2023-02-06T05:29:39.647Z,0.68
2023-02-06T05:32:06.338Z,0.82
2023-02-06T05:34:33.076Z,0.74
2023-02-06T05:36:59.589Z,0.68
2023-02-06T05:39:26.314Z,0.69
2023-02-06T05:41:53.126Z,0.67
2023-02-06T05:44:19.741Z,0.80
2023-02-06T05:46:48.361Z,0.86
2023-02-06T05:49:15.303Z,0.82
2023-02-06T05:51:41.835Z,0.79
2023-02-06T05:54:08.402Z,0.91
2023-02-06T05:56:34.981Z,1.01
2023-02-06T05:59:01.545Z,1.10
2023-02-06T06:01:29.135Z,1.27
2023-02-06T06:03:56.183Z,0.93
2023-02-06T06:06:22.799Z,0.72
2023-02-06T06:08:49.374Z,0.69
2023-02-06T06:11:15.975Z,1.14
2023-02-06T06:13:42.537Z,0.96
2023-02-06T06:16:09.110Z,1.07
2023-02-06T06:18:35.762Z,0.40
2023-02-06T06:21:02.469Z,0.28
2023-02-06T06:23:29.114Z,0.45
2023-02-06T06:25:55.704Z,0.56
2023-02-06T06:28:22.377Z,0.50
2023-02-06T06:30:48.958Z,0.17
2023-02-06T06:33:16.647Z,0.34
2023-02-06T06:35:43.575Z,-0.04
2023-02-06T06:38:11.266Z,0.51
2023-02-06T06:40:39.785Z,0.87
2023-02-06T06:43:06.460Z,0.87
2023-02-06T06:45:33.063Z,0.87
2023-02-06T06:47:59.776Z,1.09
2023-02-06T06:50:26.396Z,1.04
2023-02-06T06:52:53.000Z,0.57
2023-02-06T06:55:19.666Z,1.07
2023-02-06T06:57:47.023Z,1.20
2023-02-06T07:00:15.825Z,0.66
2023-02-06T07:02:42.904Z,0.52
2023-02-06T07:05:10.288Z,0.63
2023-02-06T07:07:39.056Z,0.98
2023-02-06T07:10:07.430Z,1.04
2023-02-06T07:12:34.135Z,0.87
2023-02-06T07:15:00.803Z,0.93
2023-02-06T07:17:27.356Z,0.60
2023-02-06T07:19:54.021Z,0.99
2023-02-06T07:22:21.247Z,1.12
2023-02-06T07:24:48.319Z,1.35
2023-02-06T07:27:14.951Z,1.29
2023-02-06T07:29:41.536Z,1.46
2023-02-06T07:32:08.212Z,1.25
2023-02-06T07:34:36.044Z,1.47
2023-02-06T07:37:03.434Z,1.41
2023-02-06T07:39:30.090Z,1.71
2023-02-06T07:41:56.599Z,1.80
2023-02-06T07:44:30.024Z,1.74
2023-02-06T07:46:57.332Z,1.63
2023-02-06T07:49:24.371Z,1.69
2023-02-06T07:51:50.975Z,1.75
2023-02-06T07:54:18.966Z,1.89
2023-02-06T07:56:47.042Z,1.78
2023-02-06T07:59:13.702Z,1.89
2023-02-06T08:01:40.299Z,1.89
2023-02-06T08:04:06.972Z,1.93
2023-02-06T08:06:33.624Z,1.95
2023-02-06T08:09:00.194Z,1.98
2023-02-06T08:11:30.042Z,1.80
2023-02-06T08:13:57.210Z,1.87
2023-02-06T08:16:25.144Z,1.89
2023-02-06T08:18:52.131Z,2.01
2023-02-06T08:21:22.119Z,1.95
2023-02-06T08:23:54.903Z,1.89
2023-02-06T08:26:22.082Z,1.97
2023-02-06T08:28:50.845Z,1.99
2023-02-06T08:31:21.815Z,1.79
2023-02-06T08:33:49.214Z,1.85
2023-02-06T08:36:18.393Z,1.88
2023-02-06T08:38:45.260Z,1.65
2023-02-06T08:41:22.055Z,1.87
2023-02-06T08:43:50.609Z,1.99
2023-02-06T08:46:18.834Z,2.15
2023-02-06T08:48:45.916Z,2.10
2023-02-06T08:51:14.285Z,2.25
2023-02-06T08:53:41.107Z,2.25
2023-02-06T08:56:10.771Z,2.04
2023-02-06T08:58:37.891Z,2.26
2023-02-06T09:01:10.083Z,2.30
2023-02-06T09:03:36.994Z,2.23
2023-02-06T09:06:09.908Z,2.21
2023-02-06T09:08:38.142Z,2.34
2023-02-06T09:11:08.432Z,2.46
2023-02-06T09:13:35.800Z,2.53
2023-02-06T09:16:03.363Z,2.58
2023-02-06T09:18:30.081Z,2.36
2023-02-06T09:21:12.072Z,2.32
2023-02-06T09:23:44.719Z,2.29
2023-02-06T09:26:13.023Z,2.30
2023-02-06T09:28:40.019Z,2.34
2023-02-06T09:31:08.201Z,2.49
2023-02-06T09:33:36.490Z,2.38
2023-02-06T09:36:13.951Z,2.45
2023-02-06T09:38:42.945Z,2.37
2023-02-06T09:41:20.076Z,2.48
2023-02-06T09:43:53.612Z,2.43
2023-02-06T09:46:27.284Z,2.32
2023-02-06T09:48:56.486Z,2.35
2023-02-06T09:51:25.817Z,2.39
2023-02-06T09:54:09.004Z,2.40
2023-02-06T09:57:09.279Z,2.61
2023-02-06T09:59:40.704Z,2.56
2023-02-06T10:02:26.066Z,2.58
2023-02-06T10:05:14.039Z,2.40
2023-02-06T10:07:52.781Z,2.47
2023-02-06T10:10:43.100Z,2.48
2023-02-06T10:13:17.775Z,2.57
2023-02-06T10:15:47.987Z,2.77
2023-02-06T10:18:38.241Z,2.38
2023-02-06T10:21:10.928Z,2.53
2023-02-06T10:24:04.471Z,2.69
2023-02-06T10:26:34.454Z,2.55
2023-02-06T10:29:01.121Z,2.71
2023-02-06T10:31:41.223Z,2.92
2023-02-06T10:34:07.731Z,2.94
2023-02-06T10:36:37.070Z,3.03
2023-02-06T10:39:18.146Z,2.70
2023-02-06T10:42:22.916Z,2.38
2023-02-06T10:45:19.302Z,2.22
2023-02-06T10:47:54.994Z,2.53
2023-02-06T10:50:36.272Z,2.44
2023-02-06T10:53:27.740Z,2.66
2023-02-06T10:56:02.787Z,2.53
2023-02-06T10:58:42.610Z,2.55
2023-02-06T11:01:25.086Z,2.60
2023-02-06T11:04:21.783Z,2.77
2023-02-06T11:06:48.415Z,2.61
2023-02-06T11:09:16.876Z,2.30
2023-02-06T11:11:51.309Z,2.43
2023-02-06T11:14:25.331Z,2.75
2023-02-06T11:16:53.295Z,2.71
2023-02-06T11:19:30.271Z,2.67
2023-02-06T11:22:08.565Z,2.57
2023-02-06T11:24:39.080Z,2.96
2023-02-06T11:27:17.029Z,3.21
2023-02-06T11:29:47.247Z,3.15
2023-02-06T11:32:36.420Z,3.08
2023-02-06T11:35:07.879Z,3.11
2023-02-06T11:37:38.700Z,3.17
2023-02-06T11:40:17.545Z,3.33
2023-02-06T11:43:11.109Z,3.39
2023-02-06T11:45:37.990Z,3.37
2023-02-06T11:48:07.299Z,3.26
2023-02-06T11:50:36.404Z,3.30
2023-02-06T11:53:09.385Z,3.25
2023-02-06T11:55:37.920Z,3.52
2023-02-06T11:58:13.988Z,3.30
2023-02-06T12:00:52.829Z,3.40
2023-02-06T12:03:51.774Z,3.66
2023-02-06T12:06:30.715Z,3.66
2023-02-06T12:09:02.941Z,3.68
2023-02-06T12:11:43.036Z,3.72
2023-02-06T12:14:29.413Z,3.52
2023-02-06T12:16:56.620Z,3.76
2023-02-06T12:19:33.630Z,3.87
2023-02-06T12:22:26.888Z,3.65
2023-02-06T12:24:56.366Z,3.76
2023-02-06T12:27:34.291Z,4.03
2023-02-06T12:30:19.726Z,3.99
2023-02-06T12:32:50.712Z,3.89
2023-02-06T12:35:44.812Z,4.04
2023-02-06T12:38:21.501Z,3.96
2023-02-06T12:40:51.161Z,3.76
2023-02-06T12:43:18.933Z,3.97
2023-02-06T12:46:01.586Z,4.10
2023-02-06T12:48:37.243Z,4.23
2023-02-06T12:51:27.368Z,4.09
2023-02-06T12:54:06.264Z,4.10
2023-02-06T12:56:41.906Z,4.03
2023-02-06T12:59:56.988Z,4.33
2023-02-06T13:02:57.589Z,4.27
2023-02-06T13:05:28.800Z,4.38
2023-02-06T13:08:03.436Z,4.28
2023-02-06T13:10:30.077Z,4.51
2023-02-06T13:12:59.002Z,4.38
2023-02-06T13:15:31.145Z,4.42
2023-02-06T13:17:58.017Z,4.89
2023-02-06T13:20:26.390Z,4.82
2023-02-06T13:23:14.624Z,4.73
2023-02-06T13:25:41.199Z,4.79
2023-02-06T13:28:23.165Z,4.83
2023-02-06T13:31:00.875Z,4.77
2023-02-06T13:33:39.445Z,4.79
2023-02-06T13:36:17.702Z,4.76
2023-02-06T13:38:44.319Z,4.75
2023-02-06T13:41:16.925Z,4.77
2023-02-06T13:44:18.989Z,4.70
2023-02-06T13:47:33.344Z,4.77
2023-02-06T13:50:28.703Z,4.91
2023-02-06T13:52:55.219Z,4.93
2023-02-06T13:55:42.538Z,5.10
2023-02-06T13:58:28.057Z,5.24
2023-02-06T14:00:57.181Z,5.49
2023-02-06T14:03:33.707Z,5.59
2023-02-06T14:06:20.792Z,5.55
2023-02-06T14:08:59.580Z,5.42
2023-02-06T14:11:29.090Z,5.40
2023-02-06T14:14:28.301Z,5.35
2023-02-06T14:17:51.645Z,5.37
2023-02-06T14:20:34.357Z,5.62
2023-02-06T14:23:16.210Z,5.84
2023-02-06T14:26:01.646Z,5.69
2023-02-06T14:28:43.157Z,5.74
2023-02-06T14:31:46.053Z,5.85
2023-02-06T14:34:26.191Z,5.81
2023-02-06T14:37:20.553Z,6.11
2023-02-06T14:39:53.526Z,6.18
2023-02-06T14:42:33.101Z,6.07
2023-02-06T14:45:05.900Z,6.37
2023-02-06T14:47:42.104Z,6.47
2023-02-06T14:50:30.960Z,6.62
2023-02-06T14:53:03.367Z,6.55
2023-02-06T14:55:30.548Z,6.45
2023-02-06T14:57:57.393Z,6.26
2023-02-06T15:00:25.968Z,6.48
2023-02-06T15:03:23.249Z,6.37
2023-02-06T15:06:05.734Z,6.38
2023-02-06T15:08:33.559Z,6.47
2023-02-06T15:11:05.128Z,6.35
2023-02-06T15:13:37.724Z,6.37
2023-02-06T15:16:07.010Z,6.44
2023-02-06T15:18:34.957Z,6.63
2023-02-06T15:21:01.447Z,6.47
2023-02-06T15:24:04.590Z,6.35
2023-02-06T15:26:42.973Z,5.93
2023-02-06T15:29:22.887Z,5.96
2023-02-06T15:31:53.010Z,5.88
2023-02-06T15:34:23.084Z,5.64
2023-02-06T15:36:50.222Z,5.57
2023-02-06T15:39:18.193Z,5.74
2023-02-06T15:41:48.028Z,5.86
2023-02-06T15:44:26.537Z,5.84
2023-02-06T15:46:54.565Z,5.67
2023-02-06T15:49:43.270Z,5.78
2023-02-06T15:52:11.817Z,5.66
2023-02-06T15:54:42.423Z,5.67
2023-02-06T15:57:29.173Z,5.67
2023-02-06T15:59:59.010Z,5.70
2023-02-06T16:02:30.748Z,5.64
2023-02-06T16:04:57.588Z,5.55
2023-02-06T16:07:27.476Z,5.55
2023-02-06T16:10:09.297Z,5.50
2023-02-06T16:12:39.111Z,5.30
2023-02-06T16:15:25.085Z,5.10
2023-02-06T16:17:52.090Z,5.26
2023-02-06T16:20:42.159Z,5.09
2023-02-06T16:23:44.060Z,5.19
2023-02-06T16:26:18.405Z,5.14
2023-02-06T16:28:50.996Z,5.13
2023-02-06T16:31:17.802Z,5.14
2023-02-06T16:33:47.350Z,5.03
2023-02-06T16:36:20.554Z,4.97
2023-02-06T16:38:57.552Z,4.81
2023-02-06T16:41:27.348Z,4.76
2023-02-06T16:43:55.939Z,4.64
2023-02-06T16:46:22.630Z,4.61
2023-02-06T16:48:49.326Z,4.59
2023-02-06T16:51:18.840Z,4.51
2023-02-06T16:53:48.224Z,4.25
2023-02-06T16:56:16.020Z,4.14
2023-02-06T16:58:43.020Z,4.09
2023-02-06T17:01:24.695Z,4.03
2023-02-06T17:03:52.800Z,3.89
2023-02-06T17:06:25.783Z,3.97
2023-02-06T17:08:55.624Z,3.93
2023-02-06T17:11:22.186Z,4.00
2023-02-06T17:13:49.045Z,3.88
2023-02-06T17:16:22.236Z,3.85
2023-02-06T17:18:49.346Z,3.81
2023-02-06T17:21:19.514Z,3.76
2023-02-06T17:23:47.078Z,3.65
2023-02-06T17:26:16.824Z,3.59
2023-02-06T17:28:43.970Z,3.42
2023-02-06T17:31:10.879Z,3.44
2023-02-06T17:33:37.888Z,3.41
2023-02-06T17:36:07.784Z,3.31
2023-02-06T17:38:34.607Z,3.27
2023-02-06T17:41:01.236Z,3.23
2023-02-06T17:43:29.547Z,3.22
2023-02-06T17:45:56.237Z,2.98
2023-02-06T17:48:22.879Z,3.08
2023-02-06T17:50:49.485Z,3.08
2023-02-06T17:53:16.493Z,2.83
2023-02-06T17:55:45.069Z,2.97
2023-02-06T17:58:11.663Z,3.00
2023-02-06T18:00:38.831Z,2.83
2023-02-06T18:03:05.664Z,2.74
2023-02-06T18:05:32.405Z,2.64
2023-02-06T18:07:58.992Z,2.67
2023-02-06T18:10:25.903Z,2.69
2023-02-06T18:12:52.557Z,2.60
2023-02-06T18:15:19.229Z,2.46
2023-02-06T18:17:45.852Z,2.44
2023-02-06T18:20:13.008Z,2.36
2023-02-06T18:22:42.624Z,2.37
2023-02-06T18:25:11.338Z,2.23
2023-02-06T18:27:38.852Z,2.37
2023-02-06T18:30:06.306Z,2.38
2023-02-06T18:32:33.705Z,2.35
2023-02-06T18:35:00.591Z,2.23
2023-02-06T18:37:27.454Z,2.11
2023-02-06T18:39:57.790Z,2.12
2023-02-06T18:42:43.037Z,2.22
2023-02-06T18:45:09.752Z,2.21
2023-02-06T18:47:36.409Z,2.18
2023-02-06T18:50:02.998Z,2.23
2023-02-06T18:52:29.611Z,2.11
2023-02-06T18:54:56.268Z,2.22
2023-02-06T18:57:22.933Z,2.05
2023-02-06T18:59:49.534Z,1.94
2023-02-06T19:02:16.257Z,2.10
2023-02-06T19:04:42.909Z,2.05
2023-02-06T19:07:11.625Z,1.93
2023-02-06T19:09:38.677Z,1.78
2023-02-06T19:12:05.428Z,1.69
2023-02-06T19:14:32.067Z,1.50
2023-02-06T19:16:58.895Z,1.60
2023-02-06T19:19:25.590Z,1.62
2023-02-06T19:21:52.166Z,1.59
2023-02-06T19:24:18.944Z,1.57
2023-02-06T19:26:46.190Z,1.59
2023-02-06T19:29:19.373Z,1.60
2023-02-06T19:31:53.423Z,1.68
2023-02-06T19:34:20.170Z,1.73
2023-02-06T19:36:46.748Z,1.68
2023-02-06T19:39:14.233Z,1.62
2023-02-06T19:41:40.843Z,1.77
2023-02-06T19:44:10.470Z,1.77
2023-02-06T19:46:37.599Z,1.71
2023-02-06T19:49:06.213Z,1.51
2023-02-06T19:51:38.874Z,1.52
2023-02-06T19:54:05.982Z,1.60
2023-02-06T19:56:39.239Z,1.51
2023-02-06T19:59:19.421Z,1.45
2023-02-06T20:01:51.509Z,1.41
2023-02-06T20:04:19.384Z,1.49
2023-02-06T20:06:46.754Z,1.56
2023-02-06T20:09:15.644Z,1.43
2023-02-06T20:11:42.877Z,1.40
2023-02-06T20:14:10.788Z,1.42
2023-02-06T20:16:39.523Z,1.34
2023-02-06T20:19:15.432Z,1.30
2023-02-06T20:21:44.307Z,1.35
2023-02-06T20:24:13.939Z,1.47
2023-02-06T20:26:41.703Z,1.54
2023-02-06T20:29:11.248Z,1.56
2023-02-06T20:31:37.829Z,1.43
2023-02-06T20:34:05.596Z,1.49
2023-02-06T20:36:32.273Z,1.52
2023-02-06T20:39:00.120Z,1.62
2023-02-06T20:41:31.088Z,1.54
2023-02-06T20:43:59.745Z,1.54
2023-02-06T20:46:29.634Z,1.67
2023-02-06T20:49:01.806Z,1.63
2023-02-06T20:51:29.690Z,1.64
2023-02-06T20:53:56.754Z,1.60
2023-02-06T20:56:23.991Z,1.57
2023-02-06T20:58:51.223Z,1.60
2023-02-06T21:01:19.618Z,1.56
2023-02-06T21:03:47.075Z,1.57
2023-02-06T21:06:14.883Z,1.51
2023-02-06T21:08:42.645Z,1.41
2023-02-06T21:11:09.450Z,1.31
2023-02-06T21:13:36.219Z,1.33
2023-02-06T21:16:02.873Z,1.36
2023-02-06T21:18:31.446Z,1.34
2023-02-06T21:21:07.134Z,1.29
2023-02-06T21:23:34.023Z,1.08
2023-02-06T21:26:00.820Z,1.08
2023-02-06T21:28:27.477Z,1.04
2023-02-06T21:31:02.692Z,0.97
2023-02-06T21:33:29.799Z,0.94
2023-02-06T21:35:56.967Z,0.94
2023-02-06T21:38:24.775Z,0.95
2023-02-06T21:40:51.430Z,0.85
2023-02-06T21:43:18.021Z,0.82
2023-02-06T21:45:47.531Z,0.94
2023-02-06T21:48:14.416Z,0.78
2023-02-06T21:50:41.470Z,0.81
2023-02-06T21:53:09.253Z,0.77
2023-02-06T21:55:41.616Z,0.74
2023-02-06T21:58:08.264Z,0.68
2023-02-06T22:00:34.894Z,0.70
2023-02-06T22:03:01.724Z,0.74
2023-02-06T22:05:29.160Z,0.70
2023-02-06T22:07:56.811Z,0.71
2023-02-06T22:10:23.388Z,0.59
2023-02-06T22:12:49.973Z,0.49
2023-02-06T22:15:17.087Z,0.63
2023-02-06T22:17:43.667Z,0.61
2023-02-06T22:20:11.017Z,0.58
2023-02-06T22:22:38.646Z,0.51
2023-02-06T22:25:05.758Z,0.67
2023-02-06T22:27:33.099Z,0.58
2023-02-06T22:29:59.637Z,0.61
2023-02-06T22:32:26.294Z,0.70
2023-02-06T22:34:53.941Z,0.66
2023-02-06T22:37:20.792Z,0.73
2023-02-06T22:39:47.345Z,0.71
2023-02-06T22:42:13.992Z,0.56
2023-02-06T22:44:40.536Z,0.48
2023-02-06T22:47:07.246Z,0.47
2023-02-06T22:49:33.869Z,0.52
2023-02-06T22:52:00.369Z,0.56
2023-02-06T22:54:27.059Z,0.50
2023-02-06T22:56:53.652Z,0.57
2023-02-06T22:59:22.932Z,0.52
2023-02-06T23:01:55.110Z,0.55
2023-02-06T23:04:24.494Z,0.57
2023-02-06T23:06:52.070Z,0.44
2023-02-06T23:09:33.832Z,0.35
2023-02-06T23:12:01.333Z,0.38
2023-02-06T23:14:30.027Z,0.38
2023-02-06T23:16:57.833Z,0.35
2023-02-06T23:19:24.690Z,0.31
2023-02-06T23:21:51.483Z,0.19
2023-02-06T23:24:19.023Z,0.31
2023-02-06T23:26:48.887Z,0.34
2023-02-06T23:29:17.901Z,0.24
2023-02-06T23:31:46.316Z,0.26
2023-02-06T23:34:14.102Z,0.31
2023-02-06T23:36:41.751Z,0.22
2023-02-06T23:39:08.314Z,0.20
2023-02-06T23:41:35.170Z,0.23
2023-02-06T23:44:05.439Z,0.05
2023-02-06T23:46:36.160Z,0.02
2023-02-06T23:49:03.384Z,-0.07
2023-02-06T23:51:30.024Z,0.08
2023-02-06T23:53:56.585Z,0.00
2023-02-06T23:56:26.563Z,0.03
2023-02-06T23:58:55.478Z,0.11
